Ns Century — A8IJ8 — position and weather

sailwx.info

Track history (hours):
 
Tides and Currents Weather Stations Pressure Air Temp Water Temp Dewpoint Dewpoint Depression Visibility Wind Speed Wind Dir Waves Ship Positions

Ns Century

Last reported at 2017-Dec-09 05:22 UTC. Time now 2017-Dec-11 02:13 UTC.
Position N 36°28' E 014°04'.

Length 244 m; draft 11.2 m.

Type: Ship. MMSI: 636012853.

Date/timePositionNaut miles runAvg speedWind from/ knotsBaromVisibWave heightAir tempDewpointWater temp
2017-Dec-09 05:22N 36°28' E 014°04'412.1
2017-Dec-09 05:00N 36°27' E 014°09'612.2
2017-Dec-09 04:30N 36°25' E 014°16'611.8
2017-Dec-09 04:00N 36°23' E 014°23'611.9
2017-Dec-09 03:30N 36°24' E 014°30'611.9
2017-Dec-09 02:59N 36°24' E 014°38'611.7
2017-Dec-09 02:29N 36°25' E 014°45'  
2017-Dec-03 14:34N 34°54' E 022°53'112.8
2017-Dec-03 14:30N 34°54' E 022°54'612.9
2017-Dec-03 14:00N 34°51' E 023°01'812.9
2017-Dec-03 13:23N 34°48' E 023°10'9513.0
2017-Dec-03 06:06N 34°12' E 024°57'213.2
2017-Dec-03 05:59N 34°12' E 024°58'912.8
2017-Dec-03 05:18N 34°11' E 025°09'812.7
2017-Dec-03 04:41N 34°11' E 025°18'612.7
2017-Dec-03 04:12N 34°11' E 025°26'212.7
2017-Dec-03 04:01N 34°11' E 025°29'11012.9
2017-Dec-02 19:26N 34°11' E 027°42'  
Track history (hours):
 
Tides and Currents Weather Stations Pressure Air Temp Water Temp Dewpoint Dewpoint Depression Visibility Wind Speed Wind Dir Waves Ship Positions

Ns Century

Last reported at 2017-Dec-09 05:22 UTC. Time now 2017-Dec-11 02:13 UTC.
Position N 36°28' E 014°04'.

Length 244 m; draft 11.2 m.

Type: Ship. MMSI: 636012853.

Date/timePositionNaut miles runAvg speedWind from/ knotsBaromVisibWave heightAir tempDewpointWater temp
2017-Dec-09 05:22N 36°28' E 014°04'412.1
2017-Dec-09 05:00N 36°27' E 014°09'612.2
2017-Dec-09 04:30N 36°25' E 014°16'611.8
2017-Dec-09 04:00N 36°23' E 014°23'611.9
2017-Dec-09 03:30N 36°24' E 014°30'611.9
2017-Dec-09 02:59N 36°24' E 014°38'611.7
2017-Dec-09 02:29N 36°25' E 014°45'  
2017-Dec-03 14:34N 34°54' E 022°53'112.8
2017-Dec-03 14:30N 34°54' E 022°54'612.9
2017-Dec-03 14:00N 34°51' E 023°01'812.9
2017-Dec-03 13:23N 34°48' E 023°10'9513.0
2017-Dec-03 06:06N 34°12' E 024°57'213.2
2017-Dec-03 05:59N 34°12' E 024°58'912.8
2017-Dec-03 05:18N 34°11' E 025°09'812.7
2017-Dec-03 04:41N 34°11' E 025°18'612.7
2017-Dec-03 04:12N 34°11' E 025°26'212.7
2017-Dec-03 04:01N 34°11' E 025°29'11012.9
2017-Dec-02 19:26N 34°11' E 027°42'  

Dump ship's entire track history